createdAt,value
2024-01-09T00:00:06.659Z,101352.16
2024-01-09T00:01:30.393Z,101354.34
2024-01-09T00:02:51.470Z,101352.81
2024-01-09T00:04:21.235Z,101356.28
2024-01-09T00:06:28.284Z,101361.16
2024-01-09T00:08:01.414Z,101348.00
2024-01-09T00:11:14.382Z,101356.91
2024-01-09T00:12:36.664Z,101361.97
2024-01-09T00:14:25.534Z,101354.41
2024-01-09T00:18:05.436Z,101351.50
2024-01-09T00:19:14.843Z,101357.97
2024-01-09T00:23:05.241Z,101357.84
2024-01-09T00:25:07.059Z,101354.69
2024-01-09T00:26:19.341Z,101363.50
2024-01-09T00:27:42.137Z,101366.78
2024-01-09T00:29:04.448Z,101365.19
2024-01-09T00:30:29.633Z,101360.91
2024-01-09T00:31:51.339Z,101364.69
2024-01-09T00:33:13.449Z,101372.50
2024-01-09T00:34:46.076Z,101368.78
2024-01-09T00:36:08.813Z,101367.25
2024-01-09T00:37:42.156Z,101381.16
2024-01-09T00:39:07.649Z,101376.47
2024-01-09T00:40:56.268Z,101379.84
2024-01-09T00:42:22.359Z,101380.78
2024-01-09T00:43:45.618Z,101382.34
2024-01-09T00:46:51.389Z,101382.34
2024-01-09T00:48:16.899Z,101381.69
2024-01-09T00:50:02.440Z,101384.13
2024-01-09T00:55:33.732Z,101395.44
2024-01-09T00:57:28.799Z,101400.63
2024-01-09T00:58:51.254Z,101394.88
2024-01-09T01:00:27.348Z,101401.78
2024-01-09T01:01:56.399Z,101392.53
2024-01-09T01:03:18.522Z,101394.25
2024-01-09T01:04:41.214Z,101397.88
2024-01-09T01:06:05.236Z,101400.91
2024-01-09T01:07:28.149Z,101403.50
2024-01-09T01:08:51.018Z,101404.59
2024-01-09T01:10:19.817Z,101415.75
2024-01-09T01:11:53.642Z,101403.78
2024-01-09T01:13:26.454Z,101405.44
2024-01-09T01:15:34.205Z,101407.91
2024-01-09T01:16:56.337Z,101417.31
2024-01-09T01:18:21.068Z,101417.97
2024-01-09T01:19:46.812Z,101421.84
2024-01-09T01:21:09.365Z,101421.75
2024-01-09T01:22:34.822Z,101421.84
2024-01-09T01:24:01.481Z,101422.03
2024-01-09T01:25:23.896Z,101433.31
2024-01-09T01:26:47.652Z,101432.66
2024-01-09T01:28:13.885Z,101429.09
2024-01-09T01:29:42.786Z,101430.94
2024-01-09T01:31:05.538Z,101424.94
2024-01-09T01:32:27.406Z,101436.66
2024-01-09T01:33:50.005Z,101440.47
2024-01-09T01:35:12.900Z,101437.53
2024-01-09T01:36:35.262Z,101441.09
2024-01-09T01:37:57.999Z,101437.84
2024-01-09T01:39:20.893Z,101445.59
2024-01-09T01:40:43.245Z,101439.72
2024-01-09T01:42:14.107Z,101441.09
2024-01-09T01:43:47.569Z,101445.91
2024-01-09T01:45:18.370Z,101446.50
2024-01-09T01:48:18.803Z,101448.00
2024-01-09T01:49:50.785Z,101453.44
2024-01-09T01:51:32.578Z,101452.63
2024-01-09T01:52:58.469Z,101447.78
2024-01-09T01:54:21.506Z,101450.41
2024-01-09T01:55:44.017Z,101451.44
2024-01-09T01:57:09.856Z,101457.00
2024-01-09T01:58:34.817Z,101457.44
2024-01-09T01:59:59.528Z,101463.69
2024-01-09T02:01:23.944Z,101463.50
2024-01-09T02:02:48.149Z,101465.22
2024-01-09T02:04:10.658Z,101468.91
2024-01-09T02:06:17.042Z,101461.13
2024-01-09T02:07:31.832Z,101469.69
2024-01-09T02:09:05.583Z,101467.53
2024-01-09T02:10:28.601Z,101473.44
2024-01-09T02:11:52.054Z,101472.97
2024-01-09T02:13:18.462Z,101472.50
2024-01-09T02:14:44.753Z,101482.81
2024-01-09T02:16:34.580Z,101478.81
2024-01-09T02:18:23.000Z,101476.22
2024-01-09T02:19:43.960Z,101485.34
2024-01-09T02:21:09.386Z,101480.53
2024-01-09T02:22:30.964Z,101479.19
2024-01-09T02:24:08.234Z,101481.63
2024-01-09T02:25:31.384Z,101478.75
2024-01-09T02:27:11.134Z,101484.63
2024-01-09T02:28:36.380Z,101485.34
2024-01-09T02:30:02.504Z,101487.44
2024-01-09T02:31:31.114Z,101492.78
2024-01-09T02:33:00.325Z,101493.13
2024-01-09T02:34:35.680Z,101484.19
2024-01-09T02:35:58.160Z,101488.97
2024-01-09T02:37:27.015Z,101488.13
2024-01-09T02:40:44.795Z,101500.19
2024-01-09T02:42:29.448Z,101497.34
2024-01-09T02:44:17.919Z,101502.75
2024-01-09T02:45:40.289Z,101505.94
2024-01-09T02:47:14.173Z,101497.47
2024-01-09T02:48:41.328Z,101505.44
2024-01-09T02:50:11.985Z,101516.84
2024-01-09T02:51:35.287Z,101505.50
2024-01-09T02:52:57.779Z,101505.09
2024-01-09T02:54:31.215Z,101509.09
2024-01-09T02:57:52.329Z,101509.59
2024-01-09T03:01:11.774Z,101517.91
2024-01-09T03:02:41.836Z,101522.00
2024-01-09T03:05:07.280Z,101521.50
2024-01-09T03:05:47.560Z,101525.16
2024-01-09T03:07:16.907Z,101525.84
2024-01-09T03:08:38.100Z,101523.19
2024-01-09T03:09:59.185Z,101522.25
2024-01-09T03:11:20.151Z,101520.56
2024-01-09T03:14:23.478Z,101525.91
2024-01-09T03:17:59.726Z,101522.25
2024-01-09T03:19:24.913Z,101524.06
2024-01-09T03:20:47.804Z,101530.75
2024-01-09T03:22:13.133Z,101527.50
2024-01-09T03:23:38.941Z,101533.75
2024-01-09T03:25:01.117Z,101537.94
2024-01-09T03:26:26.259Z,101532.16
2024-01-09T03:28:04.934Z,101535.66
2024-01-09T03:29:37.023Z,101540.53
2024-01-09T03:31:05.874Z,101549.06
2024-01-09T03:32:28.152Z,101539.09
2024-01-09T03:33:51.412Z,101536.19
2024-01-09T03:35:13.379Z,101539.38
2024-01-09T03:36:37.022Z,101547.94
2024-01-09T03:38:10.554Z,101543.78
2024-01-09T03:39:32.833Z,101548.84
2024-01-09T03:40:54.897Z,101551.50
2024-01-09T03:42:18.950Z,101547.25
2024-01-09T03:43:40.993Z,101542.94
2024-01-09T03:45:06.267Z,101560.53
2024-01-09T03:46:31.979Z,101556.66
2024-01-09T03:47:52.521Z,101555.56
2024-01-09T03:49:17.248Z,101557.34
2024-01-09T03:50:39.905Z,101562.41
2024-01-09T03:52:05.482Z,101549.69
2024-01-09T03:53:27.710Z,101565.97
2024-01-09T03:55:48.762Z,101568.25
2024-01-09T03:58:08.330Z,101574.66
2024-01-09T03:59:40.022Z,101565.53
2024-01-09T04:01:01.993Z,101563.75
2024-01-09T04:02:24.105Z,101572.47
2024-01-09T04:03:49.467Z,101578.72
2024-01-09T04:05:56.511Z,101576.41
2024-01-09T04:08:44.823Z,101577.38
2024-01-09T04:09:57.155Z,101580.72
2024-01-09T04:11:38.012Z,101585.47
2024-01-09T04:13:08.858Z,101593.22
2024-01-09T04:14:50.966Z,101586.72
2024-01-09T04:16:15.727Z,101593.00
2024-01-09T04:17:39.118Z,101586.09
2024-01-09T04:19:02.184Z,101590.03
2024-01-09T04:20:24.589Z,101591.00
2024-01-09T04:21:46.857Z,101588.50
2024-01-09T04:23:11.921Z,101590.41
2024-01-09T04:26:23.486Z,101593.34
2024-01-09T04:27:47.492Z,101600.47
2024-01-09T04:29:10.269Z,101604.81
2024-01-09T04:30:37.327Z,101612.88
2024-01-09T04:32:00.949Z,101607.56
2024-01-09T04:33:25.793Z,101610.19
2024-01-09T04:34:59.123Z,101618.22
2024-01-09T04:38:22.295Z,101612.78
2024-01-09T04:39:43.491Z,101618.94
2024-01-09T04:43:03.357Z,101622.84
2024-01-09T04:44:25.595Z,101619.78
2024-01-09T04:45:48.241Z,101622.34
2024-01-09T04:47:13.186Z,101619.44
2024-01-09T04:48:35.713Z,101614.97
2024-01-09T04:50:03.131Z,101620.16
2024-01-09T04:51:24.791Z,101617.34
2024-01-09T04:52:49.748Z,101625.81
2024-01-09T04:54:12.351Z,101629.00
2024-01-09T04:55:41.118Z,101622.63
2024-01-09T04:57:03.587Z,101627.50
2024-01-09T04:58:29.883Z,101633.41
2024-01-09T04:59:52.086Z,101618.75
2024-01-09T05:01:30.898Z,101636.19
2024-01-09T05:05:21.985Z,101642.03
2024-01-09T05:06:20.427Z,101649.19
2024-01-09T05:07:44.669Z,101644.16
2024-01-09T05:09:10.226Z,101649.88
2024-01-09T05:10:34.372Z,101653.50
2024-01-09T05:12:00.634Z,101655.84
2024-01-09T05:13:22.286Z,101655.44
2024-01-09T05:14:44.322Z,101654.81
2024-01-09T05:16:11.686Z,101669.75
2024-01-09T05:17:40.332Z,101665.44
2024-01-09T05:19:06.580Z,101664.13
2024-01-09T05:20:32.497Z,101666.78
2024-01-09T05:21:55.224Z,101668.16
2024-01-09T05:23:17.945Z,101667.13
2024-01-09T05:24:40.370Z,101665.16
2024-01-09T05:26:01.988Z,101663.41
2024-01-09T05:27:23.301Z,101668.56
2024-01-09T05:29:24.224Z,101675.41
2024-01-09T05:30:55.028Z,101674.34
2024-01-09T05:32:17.717Z,101681.19
2024-01-09T05:33:50.328Z,101689.69
2024-01-09T05:38:07.913Z,101692.28
2024-01-09T05:39:20.467Z,101693.28
2024-01-09T05:40:53.706Z,101701.38
2024-01-09T05:42:18.881Z,101705.56
2024-01-09T05:43:47.170Z,101708.28
2024-01-09T05:45:09.150Z,101704.50
2024-01-09T05:46:33.924Z,101707.22
2024-01-09T05:47:55.956Z,101710.41
2024-01-09T05:50:15.841Z,101720.94
2024-01-09T05:52:02.459Z,101723.25
2024-01-09T05:58:35.666Z,101725.44
2024-01-09T06:00:01.856Z,101733.13
2024-01-09T06:01:33.730Z,101734.50
2024-01-09T06:02:55.658Z,101734.59
2024-01-09T06:04:17.820Z,101731.88
2024-01-09T06:05:40.022Z,101741.22
2024-01-09T06:07:02.698Z,101743.84
2024-01-09T06:08:25.147Z,101742.38
2024-01-09T06:09:48.174Z,101751.88
2024-01-09T06:11:10.930Z,101745.78
2024-01-09T06:12:32.813Z,101739.25
2024-01-09T06:13:56.253Z,101741.88
2024-01-09T06:15:17.692Z,101750.16
2024-01-09T06:16:40.343Z,101746.50
2024-01-09T06:18:04.000Z,101746.97
2024-01-09T06:19:28.072Z,101758.34
2024-01-09T06:20:50.912Z,101752.78
2024-01-09T06:22:14.149Z,101757.53
2024-01-09T06:23:36.637Z,101748.19
2024-01-09T06:24:59.442Z,101759.28
2024-01-09T06:26:21.439Z,101761.72
2024-01-09T06:27:42.006Z,101765.97
2024-01-09T06:29:04.253Z,101762.38
2024-01-09T06:30:25.920Z,101769.88
2024-01-09T06:31:48.594Z,101771.03
2024-01-09T06:33:10.952Z,101763.72
2024-01-09T06:34:33.101Z,101763.81
2024-01-09T06:35:56.087Z,101774.31
2024-01-09T06:37:18.965Z,101773.94
2024-01-09T06:38:41.409Z,101779.72
2024-01-09T06:40:03.422Z,101766.34
2024-01-09T06:41:25.683Z,101775.03
2024-01-09T06:42:48.171Z,101778.53
2024-01-09T06:44:11.456Z,101784.50
2024-01-09T06:45:33.237Z,101780.06
2024-01-09T06:46:56.128Z,101781.91
2024-01-09T06:48:19.150Z,101785.91
2024-01-09T06:49:43.961Z,101778.00
2024-01-09T06:51:05.874Z,101789.06
2024-01-09T06:52:28.218Z,101788.19
2024-01-09T06:53:51.036Z,101801.50
2024-01-09T06:55:12.881Z,101794.72
2024-01-09T06:56:34.655Z,101798.66
2024-01-09T06:57:56.047Z,101800.97
2024-01-09T06:59:18.614Z,101792.22
2024-01-09T07:00:40.797Z,101793.94
2024-01-09T07:02:04.016Z,101798.63
2024-01-09T07:03:26.951Z,101795.81
2024-01-09T07:04:50.023Z,101796.94
2024-01-09T07:06:11.759Z,101800.28
2024-01-09T07:07:38.558Z,101795.00
2024-01-09T07:09:04.838Z,101792.88
2024-01-09T07:10:26.571Z,101801.97
2024-01-09T07:11:49.200Z,101803.91
2024-01-09T07:13:10.691Z,101803.44
2024-01-09T07:14:32.922Z,101805.97
2024-01-09T07:15:54.785Z,101808.50
2024-01-09T07:17:17.758Z,101810.00
2024-01-09T07:18:41.466Z,101805.25
2024-01-09T07:20:05.076Z,101802.47
2024-01-09T07:21:27.643Z,101810.72
2024-01-09T07:22:58.929Z,101817.28
2024-01-09T07:24:28.631Z,101813.66
2024-01-09T07:25:50.415Z,101816.00
2024-01-09T07:27:12.320Z,101818.34
2024-01-09T07:28:34.799Z,101823.94
2024-01-09T07:29:57.420Z,101824.03
2024-01-09T07:31:19.349Z,101830.06
2024-01-09T07:32:41.563Z,101830.16
2024-01-09T07:34:03.480Z,101827.31
2024-01-09T07:35:26.174Z,101825.69
2024-01-09T07:36:48.481Z,101829.03
2024-01-09T07:38:11.668Z,101825.63
2024-01-09T07:39:34.435Z,101823.63
2024-01-09T07:40:58.622Z,101819.06
2024-01-09T07:42:21.871Z,101830.16
2024-01-09T07:43:42.634Z,101839.63
2024-01-09T07:45:05.569Z,101842.50
2024-01-09T07:46:27.613Z,101837.84
2024-01-09T07:47:50.914Z,101844.25
2024-01-09T07:49:12.835Z,101843.16
2024-01-09T07:50:35.712Z,101843.97
2024-01-09T07:51:58.534Z,101846.25
2024-01-09T07:53:20.981Z,101849.06
2024-01-09T07:54:44.252Z,101848.31
2024-01-09T07:56:14.743Z,101857.34
2024-01-09T07:57:36.598Z,101863.00
2024-01-09T07:58:58.696Z,101858.03
2024-01-09T08:02:02.483Z,101872.94
2024-01-09T08:03:25.381Z,101871.13
2024-01-09T08:04:51.920Z,101881.88
2024-01-09T08:06:28.483Z,101874.00
2024-01-09T08:07:54.147Z,101879.16
2024-01-09T08:09:17.417Z,101877.47
2024-01-09T08:10:40.508Z,101878.78
2024-01-09T08:12:05.586Z,101888.97
2024-01-09T08:13:28.301Z,101879.53
2024-01-09T08:14:54.237Z,101882.44
2024-01-09T08:16:18.006Z,101886.31
2024-01-09T08:17:42.749Z,101884.41
2024-01-09T08:19:08.614Z,101875.53
2024-01-09T08:20:30.902Z,101884.81
2024-01-09T08:21:56.855Z,101885.59
2024-01-09T08:23:19.749Z,101890.28
2024-01-09T08:24:49.475Z,101892.03
2024-01-09T08:26:13.269Z,101891.78
2024-01-09T08:27:45.396Z,101896.03
2024-01-09T08:29:41.446Z,101901.81
2024-01-09T08:31:07.474Z,101904.16
2024-01-09T08:32:30.056Z,101895.44
2024-01-09T08:33:53.172Z,101904.16
2024-01-09T08:35:16.544Z,101914.44
2024-01-09T08:36:44.951Z,101905.94
2024-01-09T08:38:41.479Z,101910.38
2024-01-09T08:40:18.106Z,101911.53
2024-01-09T08:41:46.431Z,101914.50
2024-01-09T08:43:09.015Z,101917.50
2024-01-09T08:44:36.415Z,101914.25
2024-01-09T08:45:59.268Z,101918.97
2024-01-09T08:47:22.602Z,101922.34
2024-01-09T08:49:02.404Z,101923.38
2024-01-09T08:50:25.587Z,101923.91
2024-01-09T08:51:48.967Z,101927.41
2024-01-09T08:53:13.377Z,101929.28
2024-01-09T08:54:36.442Z,101930.19
2024-01-09T08:56:00.691Z,101927.84
2024-01-09T08:57:23.873Z,101942.19
2024-01-09T08:58:53.210Z,101927.94
2024-01-09T09:00:15.448Z,101927.25
2024-01-09T09:01:38.008Z,101940.41
2024-01-09T09:03:01.862Z,101931.81
2024-01-09T09:04:28.637Z,101928.09
2024-01-09T09:05:51.046Z,101930.06
2024-01-09T09:07:17.854Z,101929.88
2024-01-09T09:08:58.855Z,101930.03
2024-01-09T09:12:13.470Z,101938.69
2024-01-09T09:13:40.751Z,101930.28
2024-01-09T09:15:05.942Z,101934.72
2024-01-09T09:16:31.941Z,101934.97
2024-01-09T09:17:58.761Z,101934.47
2024-01-09T09:19:41.925Z,101923.25
2024-01-09T09:22:54.840Z,101935.34
2024-01-09T09:24:52.701Z,101927.38
2024-01-09T09:26:16.370Z,101927.03
2024-01-09T09:27:42.470Z,101924.25
2024-01-09T09:29:18.427Z,101923.78
2024-01-09T09:30:46.159Z,101924.75
2024-01-09T09:32:08.628Z,101932.53
2024-01-09T09:33:37.613Z,101924.44
2024-01-09T09:35:04.674Z,101930.38
2024-01-09T09:36:30.370Z,101928.97
2024-01-09T09:38:02.026Z,101931.41
2024-01-09T09:39:28.521Z,101932.41
2024-01-09T09:40:58.578Z,101926.94
2024-01-09T09:42:22.737Z,101939.34
2024-01-09T09:44:08.931Z,101940.00
2024-01-09T09:45:33.505Z,101936.75
2024-01-09T09:47:00.389Z,101935.63
2024-01-09T09:48:26.149Z,101935.94
2024-01-09T09:50:00.206Z,101927.44
2024-01-09T09:51:27.992Z,101928.78
2024-01-09T09:52:52.333Z,101933.63
2024-01-09T09:54:17.851Z,101929.28
2024-01-09T09:55:41.944Z,101932.72
2024-01-09T09:57:16.098Z,101934.59
2024-01-09T09:58:38.503Z,101932.28
2024-01-09T10:00:01.713Z,101924.84
2024-01-09T10:01:47.225Z,101932.50
2024-01-09T10:03:16.035Z,101930.44
2024-01-09T10:04:53.476Z,101928.44
2024-01-09T10:06:21.700Z,101926.06
2024-01-09T10:08:00.752Z,101930.44
2024-01-09T10:09:27.433Z,101930.94
2024-01-09T10:10:51.069Z,101931.69
2024-01-09T10:12:17.901Z,101927.63
2024-01-09T10:13:50.835Z,101932.53
2024-01-09T10:15:23.993Z,101937.50
2024-01-09T10:17:08.504Z,101926.28
2024-01-09T10:18:35.589Z,101924.13
2024-01-09T10:20:01.905Z,101923.28
2024-01-09T10:21:25.113Z,101926.91
2024-01-09T10:22:51.939Z,101932.28
2024-01-09T10:24:21.366Z,101932.16
2024-01-09T10:25:43.776Z,101935.69
2024-01-09T10:27:10.654Z,101928.16
2024-01-09T10:28:41.806Z,101933.03
2024-01-09T10:30:12.864Z,101927.88
2024-01-09T10:31:39.230Z,101927.19
2024-01-09T10:33:25.073Z,101933.66
2024-01-09T10:34:49.350Z,101929.06
2024-01-09T10:36:47.862Z,101930.75
2024-01-09T10:39:00.913Z,101921.78
2024-01-09T10:41:16.188Z,101924.56
2024-01-09T10:42:52.908Z,101920.25
2024-01-09T10:44:19.748Z,101918.25
2024-01-09T10:45:43.293Z,101921.19
2024-01-09T10:48:10.143Z,101920.53
2024-01-09T10:48:56.878Z,101915.81
2024-01-09T10:50:21.388Z,101905.25
2024-01-09T10:51:49.677Z,101909.06
2024-01-09T10:53:12.933Z,101906.94
2024-01-09T10:54:38.150Z,101903.69
2024-01-09T10:56:25.751Z,101904.63
2024-01-09T10:57:53.970Z,101911.78
2024-01-09T10:59:17.070Z,101911.63
2024-01-09T11:00:44.118Z,101907.16
2024-01-09T11:02:38.500Z,101904.44
2024-01-09T11:05:48.721Z,101904.97
2024-01-09T11:07:19.474Z,101901.41
2024-01-09T11:08:45.478Z,101901.28
2024-01-09T11:10:10.410Z,101899.78
2024-01-09T11:11:40.019Z,101903.41
2024-01-09T11:13:50.031Z,101898.34
2024-01-09T11:15:48.740Z,101911.72
2024-01-09T11:17:31.207Z,101903.28
2024-01-09T11:19:01.803Z,101909.94
2024-01-09T11:20:25.479Z,101907.47
2024-01-09T11:21:49.225Z,101906.72
2024-01-09T11:23:15.228Z,101898.31
2024-01-09T11:24:40.810Z,101908.47
2024-01-09T11:26:40.638Z,101912.88
2024-01-09T11:28:41.428Z,101915.88
2024-01-09T11:30:08.750Z,101902.75
2024-01-09T11:31:35.206Z,101903.19
2024-01-09T11:33:45.920Z,101906.72
2024-01-09T11:35:23.525Z,101904.88
2024-01-09T11:37:29.820Z,101913.44
2024-01-09T11:39:01.945Z,101920.53
2024-01-09T11:40:34.549Z,101910.53
2024-01-09T11:41:58.456Z,101912.81
2024-01-09T11:43:23.806Z,101914.53
2024-01-09T11:44:57.731Z,101902.25
2024-01-09T11:46:55.733Z,101914.28
2024-01-09T11:48:19.610Z,101918.84
2024-01-09T11:49:46.196Z,101924.75
2024-01-09T11:51:33.459Z,101929.41
2024-01-09T11:53:08.215Z,101929.06
2024-01-09T11:54:31.063Z,101929.84
2024-01-09T11:56:00.488Z,101928.53
2024-01-09T11:58:18.757Z,101931.13
2024-01-09T11:59:43.093Z,101930.22
2024-01-09T12:01:10.062Z,101927.97
2024-01-09T12:04:49.043Z,101931.63
2024-01-09T12:06:14.564Z,101929.09
2024-01-09T12:07:56.175Z,101928.25
2024-01-09T12:11:29.510Z,101929.56
2024-01-09T12:12:52.977Z,101924.81
2024-01-09T12:15:34.826Z,101918.69
2024-01-09T12:16:09.791Z,101913.44
2024-01-09T12:19:18.447Z,101916.25
2024-01-09T12:22:28.253Z,101922.97
2024-01-09T12:24:18.417Z,101924.28
2024-01-09T12:25:41.637Z,101923.03
2024-01-09T12:31:51.572Z,101929.66
2024-01-09T12:33:19.713Z,101929.47
2024-01-09T12:34:43.737Z,101933.75
2024-01-09T12:36:13.183Z,101927.16
2024-01-09T12:39:21.606Z,101936.19
2024-01-09T12:40:47.959Z,101938.88
2024-01-09T12:42:50.616Z,101941.97
2024-01-09T12:44:21.050Z,101939.53
2024-01-09T12:45:54.099Z,101944.72
2024-01-09T12:47:38.484Z,101946.78
2024-01-09T12:49:15.985Z,101947.75
2024-01-09T12:50:39.029Z,101951.66
2024-01-09T12:52:05.710Z,101955.16
2024-01-09T12:53:35.243Z,101955.25
2024-01-09T12:57:03.389Z,101951.06
2024-01-09T12:58:28.147Z,101952.44
2024-01-09T13:03:57.935Z,101958.72
2024-01-09T13:05:21.605Z,101956.56
2024-01-09T13:07:01.078Z,101956.81
2024-01-09T13:10:31.835Z,101967.44
2024-01-09T13:12:00.053Z,101966.63
2024-01-09T13:17:25.074Z,101951.53
2024-01-09T13:20:51.835Z,101960.44
2024-01-09T13:25:35.935Z,101956.59
2024-01-09T13:27:13.356Z,101963.00
2024-01-09T13:30:42.882Z,101960.97
2024-01-09T13:32:11.924Z,101957.63
2024-01-09T13:33:41.008Z,101965.88
2024-01-09T13:35:04.625Z,101967.06
2024-01-09T13:38:38.578Z,101962.59
2024-01-09T13:40:48.963Z,101955.97
2024-01-09T13:41:48.331Z,101970.50
2024-01-09T13:43:14.924Z,101967.56
2024-01-09T13:44:50.904Z,101969.22
2024-01-09T13:46:38.947Z,101982.34
2024-01-09T13:48:03.405Z,101977.16
2024-01-09T13:49:34.847Z,101976.91
2024-01-09T13:52:29.570Z,101988.56
2024-01-09T13:53:54.871Z,101981.66
2024-01-09T13:55:17.600Z,101989.38
2024-01-09T14:02:20.722Z,101992.06
2024-01-09T14:03:47.172Z,101998.06
2024-01-09T14:06:52.205Z,102000.16
2024-01-09T14:08:15.769Z,102004.09
2024-01-09T14:11:19.487Z,102003.88
2024-01-09T14:12:44.552Z,102005.53
2024-01-09T14:14:29.525Z,102001.56
2024-01-09T14:16:13.863Z,102004.75
2024-01-09T14:18:07.884Z,101995.94
2024-01-09T14:20:16.631Z,101993.72
2024-01-09T14:21:59.570Z,101991.38
2024-01-09T14:23:26.460Z,102000.03
2024-01-09T14:24:46.827Z,102006.97
2024-01-09T14:26:26.633Z,102002.56
2024-01-09T14:27:55.954Z,102004.53
2024-01-09T14:30:00.531Z,102006.28
2024-01-09T14:31:17.706Z,102008.88
2024-01-09T14:32:46.943Z,102009.53
2024-01-09T14:34:13.548Z,102012.66
2024-01-09T14:35:39.838Z,102018.50
2024-01-09T14:37:04.414Z,102014.75
2024-01-09T14:38:27.636Z,102020.81
2024-01-09T14:39:55.456Z,102015.63
2024-01-09T14:41:18.661Z,102009.59
2024-01-09T14:43:11.159Z,102017.31
2024-01-09T14:44:34.633Z,102019.56
2024-01-09T14:46:05.969Z,102024.66
2024-01-09T14:47:28.690Z,102027.28
2024-01-09T14:48:59.523Z,102026.97
2024-01-09T14:50:26.272Z,102030.00
2024-01-09T14:51:52.973Z,102032.09
2024-01-09T14:53:15.956Z,102027.25
2024-01-09T14:54:39.554Z,102031.56
2024-01-09T14:56:01.398Z,102032.78
2024-01-09T14:57:24.270Z,102030.03
2024-01-09T14:58:47.415Z,102032.94
2024-01-09T15:00:12.585Z,102030.78
2024-01-09T15:01:40.638Z,102028.63
2024-01-09T15:03:06.325Z,102038.88
2024-01-09T15:04:31.266Z,102037.97
2024-01-09T15:05:53.993Z,102035.75
2024-01-09T15:07:18.685Z,102039.41
2024-01-09T15:08:43.803Z,102036.91
2024-01-09T15:10:08.727Z,102040.78
2024-01-09T15:11:30.120Z,102042.41
2024-01-09T15:14:44.354Z,102044.66
2024-01-09T15:16:07.686Z,102043.91
2024-01-09T15:17:28.985Z,102049.00
2024-01-09T15:18:52.829Z,102046.38
2024-01-09T15:20:15.286Z,102054.91
2024-01-09T15:21:39.953Z,102052.28
2024-01-09T15:23:06.836Z,102047.31
2024-01-09T15:24:37.389Z,102048.78
2024-01-09T15:26:05.285Z,102046.72
2024-01-09T15:27:27.934Z,102050.63
2024-01-09T15:28:50.578Z,102057.31
2024-01-09T15:31:55.552Z,102059.13
2024-01-09T15:33:20.242Z,102058.50
2024-01-09T15:34:46.446Z,102049.38
2024-01-09T15:36:13.035Z,102061.16
2024-01-09T15:37:39.935Z,102056.66
2024-01-09T15:39:04.444Z,102055.53
2024-01-09T15:41:32.077Z,102058.63
2024-01-09T15:42:56.248Z,102068.31
2024-01-09T15:44:17.418Z,102065.16
2024-01-09T15:45:43.597Z,102060.72
2024-01-09T15:47:23.163Z,102064.59
2024-01-09T15:48:45.969Z,102068.16
2024-01-09T15:50:11.218Z,102069.44
2024-01-09T15:51:36.132Z,102066.34
2024-01-09T15:52:59.832Z,102067.16
2024-01-09T15:54:28.037Z,102065.63
2024-01-09T15:55:52.517Z,102072.72
2024-01-09T15:57:18.710Z,102070.41
2024-01-09T15:58:42.184Z,102069.97
2024-01-09T16:00:08.050Z,102075.06
2024-01-09T16:01:31.662Z,102072.56
2024-01-09T16:02:55.984Z,102078.44
2024-01-09T16:04:19.626Z,102072.41
2024-01-09T16:05:45.429Z,102077.75
2024-01-09T16:07:08.086Z,102072.34
2024-01-09T16:08:32.412Z,102076.44
2024-01-09T16:09:58.671Z,102070.22
2024-01-09T16:11:22.469Z,102075.53
2024-01-09T16:12:45.947Z,102069.59
2024-01-09T16:14:09.523Z,102075.81
2024-01-09T16:15:34.285Z,102078.66
2024-01-09T16:16:57.484Z,102069.91
2024-01-09T16:18:20.082Z,102070.63
2024-01-09T16:19:44.270Z,102074.13
2024-01-09T16:21:07.980Z,102073.41
2024-01-09T16:22:30.617Z,102073.94
2024-01-09T16:23:52.678Z,102074.31
2024-01-09T16:25:16.229Z,102078.22
2024-01-09T16:26:39.665Z,102077.56
2024-01-09T16:28:02.979Z,102082.88
2024-01-09T16:29:26.892Z,102080.47
2024-01-09T16:30:50.262Z,102076.25
2024-01-09T16:32:13.266Z,102079.31
2024-01-09T16:33:38.557Z,102081.00
2024-01-09T16:35:05.796Z,102076.84
2024-01-09T16:36:29.041Z,102083.25
2024-01-09T16:37:51.339Z,102082.81
2024-01-09T16:39:13.919Z,102086.94
2024-01-09T16:40:38.712Z,102081.63
2024-01-09T16:42:02.596Z,102087.53
2024-01-09T16:43:26.413Z,102088.56
2024-01-09T16:44:48.926Z,102089.28
2024-01-09T16:47:03.977Z,102092.00
2024-01-09T16:47:59.894Z,102091.09
2024-01-09T16:49:22.162Z,102093.81
2024-01-09T16:50:46.475Z,102091.47
2024-01-09T16:52:10.204Z,102100.16
2024-01-09T16:53:32.523Z,102089.06
2024-01-09T16:54:56.363Z,102089.38
2024-01-09T16:56:22.778Z,102097.25
2024-01-09T16:57:46.503Z,102099.63
2024-01-09T16:59:09.970Z,102102.34
2024-01-09T17:00:34.207Z,102099.34
2024-01-09T17:01:56.553Z,102102.59
2024-01-09T17:03:20.310Z,102110.09
2024-01-09T17:04:46.040Z,102105.91
2024-01-09T17:06:08.923Z,102109.34
2024-01-09T17:07:31.226Z,102110.94
2024-01-09T17:08:57.400Z,102105.34
2024-01-09T17:10:19.386Z,102110.09
2024-01-09T17:11:43.504Z,102107.03
2024-01-09T17:13:10.389Z,102111.28
2024-01-09T17:14:38.042Z,102105.94
2024-01-09T17:16:02.666Z,102115.91
2024-01-09T17:17:26.588Z,102123.56
2024-01-09T17:18:49.961Z,102117.56
2024-01-09T17:20:14.879Z,102122.00
2024-01-09T17:21:40.673Z,102120.41
2024-01-09T17:24:24.573Z,102125.84
2024-01-09T17:24:58.406Z,102123.81
2024-01-09T17:26:22.583Z,102125.91
2024-01-09T17:27:45.488Z,102126.81
2024-01-09T17:29:09.014Z,102127.94
2024-01-09T17:30:32.330Z,102131.59
2024-01-09T17:31:54.975Z,102131.50
2024-01-09T17:33:18.466Z,102127.75
2024-01-09T17:34:42.921Z,102128.78
2024-01-09T17:36:05.438Z,102123.09
2024-01-09T17:37:27.992Z,102123.41
2024-01-09T17:38:51.041Z,102133.19
2024-01-09T17:40:14.321Z,102128.81
2024-01-09T17:41:36.683Z,102126.78
2024-01-09T17:42:59.389Z,102122.50
2024-01-09T17:44:22.222Z,102126.59
2024-01-09T17:45:45.228Z,102132.31
2024-01-09T17:47:08.725Z,102132.31
2024-01-09T17:48:32.604Z,102134.22
2024-01-09T17:49:56.540Z,102128.75
2024-01-09T17:51:18.937Z,102131.66
2024-01-09T17:52:42.692Z,102136.00
2024-01-09T17:54:05.825Z,102135.50
2024-01-09T17:55:29.165Z,102130.09
2024-01-09T17:56:52.129Z,102129.25
2024-01-09T17:58:15.302Z,102139.50
2024-01-09T17:59:37.679Z,102130.22
2024-01-09T18:00:59.109Z,102135.16
2024-01-09T18:02:23.661Z,102134.44
2024-01-09T18:03:47.477Z,102138.38
2024-01-09T18:05:10.158Z,102132.13
2024-01-09T18:06:32.787Z,102130.56
2024-01-09T18:07:55.784Z,102137.03
2024-01-09T18:09:23.633Z,102132.41
2024-01-09T18:10:46.236Z,102134.94
2024-01-09T18:12:09.031Z,102131.97
2024-01-09T18:13:31.536Z,102136.06
2024-01-09T18:14:53.248Z,102134.66
2024-01-09T18:16:16.422Z,102132.41
2024-01-09T18:17:41.051Z,102139.00
2024-01-09T18:19:04.760Z,102142.31
2024-01-09T18:20:29.349Z,102137.16